Time;durP1;ratioP1;P1;durP2;ratioP2;P2;SDS_P1;SDS_P2;PMS_P1;PMS_P2;Temp;Humidity;BMP_temperature;BMP_pressure;BME280_temperature;BME280_humidity;BME280_pressure;Samples;Min_cycle;Max_cycle;Signal;HPM_P1;HPM_P2
2022/06/30 00:00:47;;;;;;;4.20;3.80;;;17.20;99.90;;;;;;5055074;28;20405;-74
2022/06/30 00:03:13;;;;;;;4.07;3.17;;;17.20;99.90;;;;;;5055609;28;20572;-73
2022/06/30 00:05:39;;;;;;;6.87;3.60;;;17.20;99.90;;;;;;5055465;28;20852;-69
2022/06/30 00:08:05;;;;;;;3.90;3.60;;;17.10;99.90;;;;;;5054572;28;20402;-70
2022/06/30 00:10:31;;;;;;;3.50;3.30;;;17.10;99.90;;;;;;5055648;28;20398;-69
2022/06/30 00:12:57;;;;;;;3.90;3.60;;;17.00;99.90;;;;;;5054469;28;20171;-74
2022/06/30 00:15:23;;;;;;;8.20;3.93;;;17.00;99.90;;;;;;5055296;28;20171;-73
2022/06/30 00:17:48;;;;;;;5.50;3.67;;;17.00;99.90;;;;;;5053792;28;20190;-70
2022/06/30 00:20:14;;;;;;;4.23;3.93;;;16.90;99.90;;;;;;5055208;28;20882;-74
2022/06/30 00:22:40;;;;;;;5.10;4.10;;;16.90;99.90;;;;;;5053988;28;20536;-74
2022/06/30 00:25:06;;;;;;;4.47;4.13;;;16.80;99.90;;;;;;5054155;28;20449;-70
2022/06/30 00:27:32;;;;;;;3.43;3.13;;;16.80;99.90;;;;;;5054100;28;20623;-74
2022/06/30 00:29:58;;;;;;;4.53;4.13;;;16.80;99.90;;;;;;5054976;28;20424;-74
2022/06/30 00:32:23;;;;;;;5.70;3.90;;;16.80;99.90;;;;;;5055159;28;20492;-74
2022/06/30 00:34:49;;;;;;;4.70;4.20;;;16.80;99.90;;;;;;5054405;28;20167;-69
2022/06/30 00:37:15;;;;;;;5.97;3.70;;;16.70;99.90;;;;;;5052916;28;20648;-73
2022/06/30 00:39:40;;;;;;;3.87;3.57;;;16.70;99.90;;;;;;5054878;28;20186;-69
2022/06/30 00:42:06;;;;;;;4.73;3.87;;;16.70;99.90;;;;;;5054897;28;20163;-74
2022/06/30 00:44:32;;;;;;;3.73;3.40;;;16.70;99.90;;;;;;5054734;28;20194;-69
2022/06/30 00:46:58;;;;;;;4.00;3.63;;;16.70;99.90;;;;;;5053912;28;20886;-70
2022/06/30 00:49:24;;;;;;;4.23;3.93;;;16.60;99.90;;;;;;5054670;28;20417;-74
2022/06/30 00:51:50;;;;;;;4.73;4.33;;;16.60;99.90;;;;;;5054646;28;20394;-70
2022/06/30 00:54:17;;;;;;;4.93;3.80;;;16.60;99.90;;;;;;5054100;28;20635;-73
2022/06/30 00:56:46;;;;;;;4.37;3.97;;;16.60;99.90;;;;;;5052330;28;20459;-70
2022/06/30 00:59:14;;;;;;;4.73;4.27;;;16.50;99.90;;;;;;5053302;28;20467;-74
2022/06/30 01:01:42;;;;;;;4.30;3.90;;;16.50;99.90;;;;;;5054144;28;20401;-70
2022/06/30 01:04:09;;;;;;;4.70;4.10;;;16.50;99.90;;;;;;5054355;28;20782;-69
2022/06/30 01:06:36;;;;;;;4.37;3.97;;;16.50;99.90;;;;;;5053542;28;20861;-70
2022/06/30 01:09:03;;;;;;;4.43;4.03;;;16.30;99.90;;;;;;5054418;28;20417;-74
2022/06/30 01:14:15;;;;;;;4.63;4.27;;;16.30;99.90;;;;;;5054268;28;20404;-70
2022/06/30 01:16:40;;;;;;;4.80;4.40;;;16.20;99.90;;;;;;5053343;28;20488;-74
2022/06/30 01:19:07;;;;;;;3.70;3.50;;;16.20;99.90;;;;;;5052863;28;20540;-74
2022/06/30 01:21:32;;;;;;;4.47;4.07;;;16.20;1.00;;;;;;5054126;28;20163;-74
2022/06/30 01:23:58;;;;;;;4.40;4.00;;;16.20;1.00;;;;;;5053980;28;20397;-74
2022/06/30 01:26:25;;;;;;;4.60;4.20;;;16.10;1.00;;;;;;5054483;28;20191;-74
2022/06/30 01:28:51;;;;;;;5.90;3.70;;;16.10;1.00;;;;;;5052947;28;20183;-69
2022/06/30 01:31:18;;;;;;;5.17;4.67;;;16.10;1.00;;;;;;5053793;28;20401;-70
2022/06/30 01:33:44;;;;;;;3.83;3.53;;;16.20;1.00;;;;;;5054043;28;20432;-70
2022/06/30 01:36:10;;;;;;;4.47;3.90;;;16.20;1.00;;;;;;5053635;28;20435;-72
2022/06/30 01:38:36;;;;;;;4.53;4.23;;;16.30;1.00;;;;;;5051712;28;20989;-72
2022/06/30 01:41:02;;;;;;;3.63;3.43;;;16.30;1.00;;;;;;5053910;28;20237;-74
2022/06/30 01:43:27;;;;;;;4.57;4.27;;;16.30;1.00;;;;;;5053656;28;20167;-74
2022/06/30 01:45:53;;;;;;;4.47;4.10;;;16.30;1.00;;;;;;5052397;28;20445;-70
2022/06/30 01:48:19;;;;;;;5.00;4.43;;;16.30;1.00;;;;;;5052170;28;20596;-70
2022/06/30 01:50:44;;;;;;;3.80;3.60;;;16.30;1.00;;;;;;5053533;28;20166;-75
2022/06/30 01:53:10;;;;;;;5.97;4.70;;;16.30;1.00;;;;;;5052486;28;20628;-69
2022/06/30 01:55:36;;;;;;;5.30;4.33;;;16.30;1.00;;;;;;5053493;28;20246;-69
2022/06/30 01:58:02;;;;;;;4.87;4.50;;;16.30;1.00;;;;;;5052435;28;20163;-73
2022/06/30 02:00:28;;;;;;;5.33;3.80;;;16.30;1.00;;;;;;5053337;28;20237;-70
2022/06/30 02:02:56;;;;;;;4.10;3.80;;;16.30;1.00;;;;;;5053375;28;20394;-70
2022/06/30 02:05:23;;;;;;;4.10;3.63;;;16.30;1.00;;;;;;5052714;28;20444;-74
2022/06/30 02:07:49;;;;;;;4.23;3.93;;;16.40;1.00;;;;;;5052561;28;20386;-74
2022/06/30 02:10:18;;;;;;;5.97;3.90;;;16.40;1.00;;;;;;5051889;28;20433;-70
2022/06/30 02:12:47;;;;;;;3.90;3.60;;;16.40;1.00;;;;;;5052591;28;20397;-74
2022/06/30 02:15:21;;;;;;;4.03;3.73;;;16.40;1.00;;;;;;5051938;28;20829;-69
2022/06/30 02:17:53;;;;;;;4.60;4.20;;;16.40;1.00;;;;;;5052356;28;20419;-70
2022/06/30 02:20:23;;;;;;;7.13;5.10;;;16.40;1.00;;;;;;5052911;28;20443;-69
2022/06/30 02:22:52;;;;;;;6.10;3.77;;;16.40;1.00;;;;;;5053028;28;20895;-74
2022/06/30 02:25:18;;;;;;;4.10;3.80;;;16.30;1.00;;;;;;5052329;28;20869;-70
2022/06/30 02:27:44;;;;;;;5.40;4.20;;;16.30;1.00;;;;;;5052250;28;20396;-74
2022/06/30 02:30:10;;;;;;;4.40;4.00;;;16.30;1.00;;;;;;5052928;28;20802;-74
2022/06/30 02:32:36;;;;;;;5.93;4.13;;;16.30;1.00;;;;;;5052886;28;20171;-74
2022/06/30 02:35:02;;;;;;;4.67;4.37;;;16.20;1.00;;;;;;5053168;28;20413;-70
2022/06/30 02:37:28;;;;;;;4.57;4.27;;;16.20;1.00;;;;;;5052048;28;20158;-74
2022/06/30 02:39:54;;;;;;;3.70;3.40;;;16.20;1.00;;;;;;5051637;28;20520;-73
2022/06/30 02:42:20;;;;;;;4.80;4.10;;;16.10;1.00;;;;;;5052720;28;20163;-74
2022/06/30 02:44:46;;;;;;;5.07;4.57;;;16.10;1.00;;;;;;5051132;28;20499;-70
2022/06/30 02:47:11;;;;;;;4.77;3.93;;;16.10;1.00;;;;;;5052066;28;20167;-70
2022/06/30 02:49:39;;;;;;;3.77;3.57;;;16.10;1.00;;;;;;5052820;28;20187;-70
2022/06/30 02:52:05;;;;;;;4.00;3.57;;;16.10;1.00;;;;;;5051467;28;20209;-74
2022/06/30 02:54:31;;;;;;;4.40;4.00;;;16.10;1.00;;;;;;5051794;28;20743;-73
2022/06/30 02:56:57;;;;;;;4.10;3.80;;;16.10;1.00;;;;;;5051816;28;20466;-69
2022/06/30 02:59:22;;;;;;;4.40;4.10;;;16.10;1.00;;;;;;5052732;28;20226;-74
2022/06/30 03:01:48;;;;;;;5.23;4.67;;;16.10;1.00;;;;;;5052759;28;20194;-69
2022/06/30 03:04:14;;;;;;;5.10;4.47;;;16.10;1.00;;;;;;5051927;28;20655;-74
2022/06/30 03:06:39;;;;;;;5.07;4.67;;;16.10;1.00;;;;;;5050416;28;20676;-74
2022/06/30 03:09:05;;;;;;;4.80;4.50;;;16.20;1.00;;;;;;5052564;28;20191;-69
2022/06/30 03:11:31;;;;;;;4.93;4.43;;;16.10;1.00;;;;;;5052591;28;20159;-74
2022/06/30 03:13:57;;;;;;;5.00;4.60;;;16.20;1.00;;;;;;5052568;28;20451;-70
2022/06/30 03:16:22;;;;;;;5.17;4.70;;;16.20;1.00;;;;;;5051317;28;20246;-69
2022/06/30 03:18:48;;;;;;;4.90;4.47;;;16.20;1.00;;;;;;5052016;28;20624;-70
2022/06/30 03:21:14;;;;;;;5.00;4.47;;;16.20;1.00;;;;;;5052627;28;20171;-71
2022/06/30 03:23:39;;;;;;;4.70;4.30;;;16.10;1.00;;;;;;5051996;28;20194;-74
2022/06/30 03:26:06;;;;;;;5.40;4.50;;;16.20;1.00;;;;;;5056119;28;20194;-74
2022/06/30 03:28:32;;;;;;;4.93;4.53;;;16.20;1.00;;;;;;5055401;28;20183;-70
2022/06/30 03:30:58;;;;;;;4.67;4.30;;;16.20;1.00;;;;;;5055049;28;20409;-71
2022/06/30 03:33:25;;;;;;;10.73;4.57;;;16.20;1.00;;;;;;5056228;28;20429;-69
2022/06/30 03:35:51;;;;;;;5.50;4.70;;;16.20;1.00;;;;;;5056188;28;20404;-74
2022/06/30 03:38:17;;;;;;;6.67;4.47;;;16.20;1.00;;;;;;5055207;28;20416;-69
2022/06/30 03:40:43;;;;;;;7.33;5.57;;;16.20;1.00;;;;;;5055405;28;20870;-70
2022/06/30 03:43:09;;;;;;;11.13;5.40;;;16.30;1.00;;;;;;5056083;28;20186;-71
2022/06/30 03:45:35;;;;;;;5.27;4.77;;;16.30;1.00;;;;;;5054812;28;20535;-69
2022/06/30 03:48:02;;;;;;;5.23;4.83;;;16.30;1.00;;;;;;5054885;28;20436;-69
2022/06/30 03:50:30;;;;;;;5.30;4.90;;;16.30;1.00;;;;;;5055948;28;20481;-70
2022/06/30 03:52:56;;;;;;;6.60;5.63;;;16.30;1.00;;;;;;5055827;28;20956;-74
2022/06/30 03:55:22;;;;;;;6.97;5.10;;;16.40;1.00;;;;;;5055694;28;20409;-74
2022/06/30 03:57:48;;;;;;;6.00;5.50;;;16.30;1.00;;;;;;5054029;28;20937;-69
2022/06/30 04:00:14;;;;;;;5.57;5.20;;;16.30;1.00;;;;;;5055041;28;20191;-74
2022/06/30 04:02:39;;;;;;;7.70;5.60;;;16.30;2.60;;;;;;5055562;28;20965;-70
2022/06/30 04:05:06;;;;;;;8.23;4.70;;;16.40;38.70;;;;;;5055434;28;20583;-70
2022/06/30 04:07:32;;;;;;;6.20;5.03;;;16.40;68.80;;;;;;5054487;28;20163;-74
2022/06/30 04:09:57;;;;;;;5.90;5.40;;;16.50;90.90;;;;;;5055421;28;20423;-69
2022/06/30 04:12:23;;;;;;;7.63;6.67;;;16.50;99.90;;;;;;5055614;28;20163;-74
2022/06/30 04:14:49;;;;;;;6.43;5.73;;;16.50;99.90;;;;;;5055390;28;20253;-70
2022/06/30 04:17:15;;;;;;;8.80;6.07;;;16.50;99.90;;;;;;5054396;28;20468;-71
2022/06/30 04:19:40;;;;;;;6.53;5.93;;;16.60;99.90;;;;;;5054751;28;20194;-75
2022/06/30 04:22:06;;;;;;;6.53;5.97;;;16.60;99.90;;;;;;5054286;28;20182;-70
2022/06/30 04:24:32;;;;;;;9.37;5.90;;;16.60;99.90;;;;;;5055237;28;20187;-70
2022/06/30 04:26:58;;;;;;;8.17;6.23;;;16.60;99.90;;;;;;5054380;28;20395;-74
2022/06/30 04:29:24;;;;;;;10.40;5.50;;;16.60;99.90;;;;;;5054969;28;20191;-70
2022/06/30 04:34:33;;;;;;;7.43;5.60;;;16.70;99.90;;;;;;5055385;28;20399;-70
2022/06/30 04:36:59;;;;;;;9.23;6.77;;;16.60;99.90;;;;;;5052913;28;20494;-74
2022/06/30 04:39:25;;;;;;;6.60;5.93;;;16.70;99.90;;;;;;5053840;28;20248;-74
2022/06/30 04:41:50;;;;;;;5.10;4.60;;;16.80;99.90;;;;;;5055001;28;20163;-74
2022/06/30 04:44:16;;;;;;;7.37;6.30;;;16.90;99.90;;;;;;5054800;28;20167;-74
2022/06/30 04:46:42;;;;;;;7.20;5.50;;;17.00;99.90;;;;;;5053869;28;20194;-74
2022/06/30 04:49:07;;;;;;;10.17;5.23;;;17.10;99.90;;;;;;5054912;28;20191;-70
2022/06/30 04:51:33;;;;;;;6.03;5.03;;;17.10;99.90;;;;;;5054737;28;20254;-69
2022/06/30 04:53:59;;;;;;;5.80;5.13;;;17.20;99.90;;;;;;5054610;28;20178;-73
2022/06/30 04:56:24;;;;;;;5.90;5.30;;;17.30;99.90;;;;;;5053902;28;20668;-74
2022/06/30 04:58:50;;;;;;;9.73;4.87;;;17.30;99.90;;;;;;5052573;28;20244;-74
2022/06/30 05:01:16;;;;;;;7.37;5.13;;;17.40;99.90;;;;;;5054565;28;20218;-70
2022/06/30 05:03:42;;;;;;;5.10;4.70;;;17.50;99.90;;;;;;5054508;28;20175;-69
2022/06/30 05:06:08;;;;;;;5.47;5.00;;;17.50;99.90;;;;;;5054340;28;20669;-70
2022/06/30 05:08:34;;;;;;;5.13;4.60;;;17.60;99.90;;;;;;5053466;28;20778;-71
2022/06/30 05:11:00;;;;;;;7.40;4.60;;;17.60;99.90;;;;;;5054456;28;20195;-74
2022/06/30 05:13:26;;;;;;;6.00;5.40;;;17.70;99.90;;;;;;5054895;28;20401;-70
2022/06/30 05:15:52;;;;;;;5.10;4.70;;;17.70;99.90;;;;;;5053465;28;20962;-73
2022/06/30 05:18:17;;;;;;;5.17;4.67;;;17.80;99.90;;;;;;5053136;28;20456;-70
2022/06/30 05:20:43;;;;;;;6.03;4.20;;;17.90;99.90;;;;;;5054162;28;20650;-74
2022/06/30 05:23:09;;;;;;;5.10;4.60;;;17.90;99.90;;;;;;5054266;28;20174;-69
2022/06/30 05:28:21;;;;;;;6.27;3.67;;;18.10;99.90;;;;;;5053310;28;20451;-69
2022/06/30 05:30:48;;;;;;;4.87;4.00;;;18.10;99.90;;;;;;5053896;28;20396;-74
2022/06/30 05:33:14;;;;;;;4.80;4.27;;;18.10;99.90;;;;;;5053580;28;20397;-74
2022/06/30 05:35:42;;;;;;;4.37;4.07;;;18.10;99.90;;;;;;5053643;28;20443;-69
2022/06/30 05:38:08;;;;;;;4.67;4.27;;;18.20;99.90;;;;;;5052672;28;20455;-69
2022/06/30 05:40:34;;;;;;;5.33;4.80;;;18.30;99.90;;;;;;5052471;28;20417;-74
2022/06/30 05:42:59;;;;;;;5.23;4.77;;;18.30;99.90;;;;;;5053720;28;20175;-72
2022/06/30 05:45:25;;;;;;;4.07;3.60;;;18.30;99.90;;;;;;5053562;28;20198;-73
2022/06/30 05:47:52;;;;;;;5.33;4.13;;;18.40;99.90;;;;;;5051901;28;20163;-74
2022/06/30 05:50:20;;;;;;;5.87;3.70;;;18.50;99.90;;;;;;5053510;28;20270;-74
2022/06/30 05:52:46;;;;;;;3.80;3.50;;;18.50;99.90;;;;;;5053416;28;20818;-73
2022/06/30 05:55:13;;;;;;;4.20;3.80;;;18.70;99.90;;;;;;5053097;28;20393;-73
2022/06/30 05:57:48;;;;;;;5.33;4.30;;;18.80;99.90;;;;;;5052711;28;20405;-74
2022/06/30 06:00:14;;;;;;;3.70;3.40;;;18.80;99.90;;;;;;5053328;28;20943;-73
2022/06/30 06:02:40;;;;;;;3.53;3.23;;;18.80;99.90;;;;;;5053538;28;20413;-72
2022/06/30 06:05:06;;;;;;;4.97;3.50;;;18.90;99.90;;;;;;5053470;28;20547;-74
2022/06/30 06:07:31;;;;;;;5.30;3.77;;;19.00;99.90;;;;;;5052417;28;20167;-72
2022/06/30 06:09:57;;;;;;;3.77;3.47;;;19.10;99.90;;;;;;5052635;28;20670;-73
2022/06/30 06:12:23;;;;;;;4.00;2.93;;;19.20;99.90;;;;;;5053238;28;20493;-72
2022/06/30 06:14:48;;;;;;;3.10;2.90;;;19.30;99.90;;;;;;5053274;28;20191;-72
2022/06/30 06:17:14;;;;;;;4.10;3.13;;;19.40;99.90;;;;;;5050989;28;20657;-73
2022/06/30 06:19:41;;;;;;;3.40;2.90;;;19.50;99.90;;;;;;5053140;28;20194;-74
2022/06/30 06:22:07;;;;;;;4.33;3.03;;;19.50;99.90;;;;;;5053151;28;20249;-73
2022/06/30 06:24:32;;;;;;;4.70;3.10;;;19.50;99.90;;;;;;5051878;28;20515;-74
2022/06/30 06:26:58;;;;;;;6.07;3.30;;;19.60;99.90;;;;;;5052270;28;20171;-73
2022/06/30 06:29:24;;;;;;;3.80;3.17;;;19.70;99.90;;;;;;5052407;28;20193;-73
2022/06/30 06:31:49;;;;;;;3.07;2.87;;;19.80;95.10;;;;;;5053264;28;20177;-74
2022/06/30 06:34:15;;;;;;;3.10;2.80;;;19.90;88.30;;;;;;5052977;28;20190;-73
2022/06/30 06:36:41;;;;;;;5.13;3.30;;;19.90;64.40;;;;;;5051980;28;20220;-73
2022/06/30 06:39:07;;;;;;;6.07;3.87;;;19.90;42.50;;;;;;5052933;28;20324;-74
2022/06/30 06:41:33;;;;;;;4.13;3.73;;;19.80;25.60;;;;;;5052866;28;20246;-74
2022/06/30 06:43:59;;;;;;;4.20;3.57;;;19.70;8.20;;;;;;5052816;28;20179;-73
2022/06/30 06:46:28;;;;;;;3.00;2.80;;;19.80;1.00;;;;;;5052618;28;20456;-74
2022/06/30 06:49:02;;;;;;;4.30;3.63;;;19.70;1.00;;;;;;5050775;28;20194;-70
2022/06/30 06:51:28;;;;;;;3.80;3.50;;;19.70;1.00;;;;;;5052798;28;20393;-69
2022/06/30 06:53:54;;;;;;;5.40;3.67;;;19.60;1.00;;;;;;5052730;28;20408;-70
2022/06/30 06:56:21;;;;;;;4.00;3.40;;;19.50;1.00;;;;;;5052517;28;20437;-70
2022/06/30 06:58:47;;;;;;;4.90;4.60;;;19.50;1.00;;;;;;5051865;28;20429;-74
2022/06/30 07:01:12;;;;;;;4.30;3.87;;;19.50;1.00;;;;;;5056862;28;20906;-73
2022/06/30 07:03:39;;;;;;;5.10;3.90;;;19.60;1.00;;;;;;5056824;28;20167;-69
2022/06/30 07:06:06;;;;;;;3.23;2.93;;;19.70;1.00;;;;;;5056713;28;20190;-74
2022/06/30 07:08:32;;;;;;;6.93;3.63;;;19.90;1.00;;;;;;5055793;28;20432;-71
2022/06/30 07:10:59;;;;;;;3.93;3.03;;;20.00;1.00;;;;;;5056643;28;20389;-69
2022/06/30 07:13:28;;;;;;;3.93;3.20;;;20.20;1.00;;;;;;5056570;28;20405;-74
2022/06/30 07:15:54;;;;;;;3.40;3.10;;;20.30;1.00;;;;;;5056570;28;20427;-70
2022/06/30 07:18:20;;;;;;;2.90;2.63;;;20.40;1.00;;;;;;5055810;28;20445;-74
2022/06/30 07:20:46;;;;;;;3.50;3.20;;;20.60;1.00;;;;;;5055028;28;20409;-74
2022/06/30 07:23:12;;;;;;;3.80;2.67;;;20.70;1.00;;;;;;5056456;28;20451;-73
2022/06/30 07:25:37;;;;;;;4.27;2.83;;;20.90;1.00;;;;;;5055757;28;20453;-74
2022/06/30 07:28:04;;;;;;;5.73;2.93;;;21.10;1.00;;;;;;5055835;28;20197;-70
2022/06/30 07:30:30;;;;;;;3.57;3.20;;;21.20;1.00;;;;;;5055124;28;20532;-70
2022/06/30 07:32:56;;;;;;;2.80;2.60;;;21.30;1.00;;;;;;5056109;28;20412;-74
2022/06/30 07:35:21;;;;;;;3.00;2.80;;;21.30;99.90;;;;;;5055138;28;20574;-70
2022/06/30 07:37:47;;;;;;;2.80;2.40;;;21.40;99.90;;;;;;5055717;28;20409;-75
2022/06/30 07:40:14;;;;;;;2.83;1.90;;;21.60;99.90;;;;;;5056080;28;20221;-75
2022/06/30 07:42:41;;;;;;;3.37;3.07;;;21.70;99.90;;;;;;5054137;28;20421;-74
2022/06/30 07:45:08;;;;;;;3.83;3.13;;;21.80;99.90;;;;;;5055933;28;20850;-70
2022/06/30 07:47:33;;;;;;;8.20;2.90;;;21.90;99.90;;;;;;5055318;28;20730;-74
2022/06/30 07:50:00;;;;;;;2.20;2.10;;;21.80;99.90;;;;;;5055729;28;20424;-73
2022/06/30 07:52:26;;;;;;;1.93;1.83;;;21.80;99.90;;;;;;5056028;28;20175;-74
2022/06/30 07:54:51;;;;;;;3.40;1.97;;;21.90;99.90;;;;;;5055877;28;20476;-69
2022/06/30 07:57:18;;;;;;;2.93;2.27;;;22.00;99.90;;;;;;5053831;28;20254;-70
2022/06/30 07:59:44;;;;;;;3.00;2.63;;;22.10;99.90;;;;;;5055264;28;20186;-74
2022/06/30 08:02:11;;;;;;;7.00;2.57;;;22.10;99.90;;;;;;5054392;28;20401;-74
2022/06/30 08:04:37;;;;;;;2.70;2.50;;;22.10;99.90;;;;;;5055537;28;20163;-74
2022/06/30 08:07:04;;;;;;;2.30;2.20;;;22.10;99.90;;;;;;5055066;28;20886;-71
2022/06/30 08:09:30;;;;;;;3.57;2.27;;;22.30;99.90;;;;;;5055380;28;20451;-69
2022/06/30 08:11:56;;;;;;;3.93;2.70;;;22.30;99.90;;;;;;5054407;28;20418;-73
2022/06/30 08:14:22;;;;;;;3.10;2.60;;;22.50;99.90;;;;;;5055552;28;20490;-74
2022/06/30 08:16:48;;;;;;;2.00;1.80;;;22.50;99.90;;;;;;5053530;28;20582;-70
2022/06/30 08:19:14;;;;;;;2.00;1.90;;;22.50;99.90;;;;;;5054773;28;20445;-72
2022/06/30 08:21:40;;;;;;;3.63;3.33;;;22.50;99.90;;;;;;5054843;28;20894;-74
2022/06/30 08:24:06;;;;;;;3.00;2.00;;;22.60;99.90;;;;;;5055249;28;20408;-74
2022/06/30 08:26:32;;;;;;;2.53;2.33;;;22.70;99.90;;;;;;5054316;28;20206;-70
2022/06/30 08:28:58;;;;;;;1.90;1.80;;;22.90;99.90;;;;;;5053957;28;20191;-69
2022/06/30 08:31:24;;;;;;;2.67;2.47;;;22.90;99.90;;;;;;5055097;28;20405;-70
2022/06/30 08:33:52;;;;;;;2.13;2.03;;;23.10;99.90;;;;;;5054969;28;20414;-73
2022/06/30 08:36:18;;;;;;;3.60;2.33;;;23.10;99.90;;;;;;5054753;28;20175;-71
2022/06/30 08:38:44;;;;;;;2.17;2.07;;;23.10;99.90;;;;;;5054136;28;20912;-69
2022/06/30 08:43:54;;;;;;;3.83;1.57;;;23.30;99.90;;;;;;5054952;28;20209;-70
2022/06/30 08:46:23;;;;;;;2.83;1.90;;;23.40;99.90;;;;;;5054630;28;20445;-74
2022/06/30 08:48:49;;;;;;;3.40;2.10;;;23.70;99.90;;;;;;5054339;28;20898;-74
2022/06/30 08:51:18;;;;;;;2.67;2.27;;;23.70;99.90;;;;;;5054799;28;20416;-74
2022/06/30 08:53:55;;;;;;;2.00;1.80;;;23.80;99.90;;;;;;5054122;28;20630;-74
2022/06/30 08:56:22;;;;;;;1.80;1.70;;;23.80;99.90;;;;;;5054550;28;20398;-70
2022/06/30 08:58:51;;;;;;;2.83;2.10;;;23.80;99.90;;;;;;5052870;28;20457;-71
2022/06/30 09:01:18;;;;;;;3.30;2.10;;;23.70;99.90;;;;;;5054637;28;20413;-69
2022/06/30 09:03:44;;;;;;;1.77;1.63;;;23.60;99.90;;;;;;5054488;28;20848;-70
2022/06/30 09:06:10;;;;;;;5.23;1.83;;;23.60;99.90;;;;;;5054944;28;20456;-73
2022/06/30 09:08:36;;;;;;;2.00;1.77;;;23.50;99.90;;;;;;5053875;28;20913;-74
2022/06/30 09:11:02;;;;;;;3.73;2.10;;;23.50;99.90;;;;;;5054459;28;20394;-71
2022/06/30 09:13:41;;;;;;;5.23;2.57;;;23.50;99.90;;;;;;5053558;28;20269;-70
2022/06/30 09:16:08;;;;;;;1.60;1.50;;;23.70;99.90;;;;;;5054326;28;20627;-70
2022/06/30 09:18:33;;;;;;;2.10;2.00;;;23.90;99.90;;;;;;5053135;28;20460;-70
2022/06/30 09:20:59;;;;;;;2.70;2.07;;;24.10;99.90;;;;;;5054256;28;20409;-70
2022/06/30 09:23:30;;;;;;;3.23;2.63;;;24.20;99.90;;;;;;5053967;28;20162;-75
2022/06/30 09:26:00;;;;;;;2.10;1.83;;;24.30;99.90;;;;;;5053841;28;20211;-70
2022/06/30 09:28:43;;;;;;;2.00;1.70;;;24.50;99.90;;;;;;5053134;28;20774;-71
2022/06/30 09:31:10;;;;;;;2.53;2.30;;;24.60;99.90;;;;;;5053410;28;20401;-72
2022/06/30 09:33:39;;;;;;;7.30;2.00;;;24.70;99.90;;;;;;5053517;28;20467;-73
2022/06/30 09:36:23;;;;;;;3.57;1.77;;;24.70;99.90;;;;;;5053484;28;20488;-74
2022/06/30 09:39:09;;;;;;;5.70;2.30;;;24.80;99.90;;;;;;5052802;28;20421;-70
2022/06/30 09:41:40;;;;;;;2.40;2.20;;;24.90;99.90;;;;;;5052148;28;20833;-74
2022/06/30 09:44:16;;;;;;;3.50;2.30;;;24.80;99.90;;;;;;5053339;28;20451;-74
2022/06/30 09:47:01;;;;;;;2.70;2.03;;;25.00;99.90;;;;;;5052010;28;20461;-75
2022/06/30 09:49:41;;;;;;;2.07;1.70;;;25.20;99.90;;;;;;5053297;28;20437;-74
2022/06/30 09:52:19;;;;;;;2.00;1.80;;;25.10;97.60;;;;;;5053252;28;20409;-73
2022/06/30 09:55:07;;;;;;;2.50;1.77;;;25.20;98.10;;;;;;5052900;28;20758;-73
2022/06/30 09:57:38;;;;;;;2.57;1.93;;;25.30;97.70;;;;;;5052568;28;20432;-70
2022/06/30 10:00:05;;;;;;;2.43;1.90;;;25.40;98.00;;;;;;5053282;28;20436;-73
2022/06/30 10:02:33;;;;;;;2.10;1.80;;;25.70;99.80;;;;;;5052989;28;20398;-70
2022/06/30 10:05:00;;;;;;;1.80;1.70;;;26.10;97.90;;;;;;5053191;28;20451;-74
2022/06/30 10:07:26;;;;;;;4.60;1.70;;;26.50;98.00;;;;;;5051756;28;20406;-71
2022/06/30 10:09:52;;;;;;;1.47;1.37;;;27.00;98.20;;;;;;5053231;28;20817;-74
2022/06/30 10:12:20;;;;;;;1.70;1.27;;;27.10;98.20;;;;;;5053298;28;20476;-75
2022/06/30 10:14:49;;;;;;;2.43;2.00;;;27.00;98.10;;;;;;5053267;28;20406;-70
2022/06/30 10:17:34;;;;;;;3.63;2.00;;;26.90;96.10;;;;;;5052160;28;20491;-74
2022/06/30 10:20:01;;;;;;;2.70;1.87;;;27.20;95.50;;;;;;5053003;28;20525;-75
2022/06/30 10:22:28;;;;;;;2.40;2.20;;;27.40;90.80;;;;;;5053058;28;20472;-71
2022/06/30 10:24:55;;;;;;;2.43;1.70;;;27.50;89.50;;;;;;5052332;28;20976;-70
2022/06/30 10:27:24;;;;;;;2.10;1.90;;;27.70;88.10;;;;;;5052219;28;20398;-75
2022/06/30 10:30:15;;;;;;;1.40;1.30;;;27.50;74.90;;;;;;5053022;28;20421;-69
2022/06/30 10:32:47;;;;;;;2.23;1.80;;;27.20;75.40;;;;;;5052914;28;20406;-75
2022/06/30 10:35:35;;;;;;;1.70;1.60;;;27.40;72.20;;;;;;5052469;28;20408;-74
2022/06/30 10:38:19;;;;;;;2.17;1.77;;;27.30;68.30;;;;;;5052099;28;20390;-70
2022/06/30 10:41:10;;;;;;;2.63;2.10;;;27.40;71.40;;;;;;5052915;28;20409;-70
2022/06/30 10:44:05;;;;;;;2.10;1.90;;;27.80;76.50;;;;;;5052066;28;20918;-75
2022/06/30 10:47:03;;;;;;;2.53;1.87;;;28.20;65.70;;;;;;5051676;28;20449;-74
2022/06/30 10:49:29;;;;;;;3.83;1.70;;;28.10;63.90;;;;;;5052093;28;20512;-75
2022/06/30 10:51:56;;;;;;;2.67;2.20;;;28.30;60.50;;;;;;5052966;28;20982;-74
2022/06/30 10:54:33;;;;;;;1.70;1.50;;;28.50;60.70;;;;;;5052963;28;20238;-72
2022/06/30 10:57:01;;;;;;;4.50;1.77;;;28.60;59.90;;;;;;5051987;28;20447;-75
2022/06/30 10:59:32;;;;;;;2.30;2.00;;;28.50;49.00;;;;;;5052659;28;20463;-74
2022/06/30 11:02:16;;;;;;;1.90;1.80;;;28.70;54.40;;;;;;5052473;28;20910;-72
2022/06/30 11:04:42;;;;;;;1.80;1.70;;;29.20;52.90;;;;;;5052008;28;20913;-71
2022/06/30 11:07:10;;;;;;;3.73;1.67;;;29.30;52.90;;;;;;5051787;28;20887;-74
2022/06/30 11:09:45;;;;;;;1.73;1.33;;;28.90;38.80;;;;;;5052710;28;20449;-75
2022/06/30 11:12:11;;;;;;;8.70;2.83;;;28.50;33.50;;;;;;5052727;28;20408;-70
2022/06/30 11:14:40;;;;;;;2.10;1.90;;;28.20;33.10;;;;;;5051251;28;20405;-74
2022/06/30 11:17:23;;;;;;;1.63;1.50;;;28.30;36.30;;;;;;5051572;28;20393;-72
2022/06/30 11:20:03;;;;;;;3.67;1.80;;;28.40;32.30;;;;;;5052467;28;20424;-71
2022/06/30 11:22:29;;;;;;;1.17;1.00;;;28.60;36.20;;;;;;5051894;28;20547;-74
2022/06/30 11:25:00;;;;;;;1.60;1.50;;;28.50;24.00;;;;;;5052448;28;20455;-70
2022/06/30 11:27:28;;;;;;;2.50;1.13;;;28.80;27.60;;;;;;5051677;28;20393;-71
2022/06/30 11:30:03;;;;;;;2.47;1.70;;;29.00;23.30;;;;;;5052402;28;20504;-70
2022/06/30 11:32:29;;;;;;;3.83;1.30;;;29.20;26.70;;;;;;5052469;28;20400;-74
2022/06/30 11:34:56;;;;;;;1.30;1.20;;;29.20;21.60;;;;;;5052380;28;20405;-75
2022/06/30 11:37:23;;;;;;;1.83;1.27;;;28.90;19.50;;;;;;5051372;28;20441;-75
2022/06/30 11:39:59;;;;;;;1.70;1.60;;;28.70;16.90;;;;;;5051677;28;20425;-72
2022/06/30 11:42:26;;;;;;;2.70;1.57;;;28.70;18.20;;;;;;5052451;28;20425;-71
2022/06/30 11:44:52;;;;;;;2.70;1.40;;;29.30;24.90;;;;;;5052402;28;20440;-71
2022/06/30 11:47:17;;;;;;;2.33;1.30;;;29.80;16.30;;;;;;5055159;28;20439;-71
2022/06/30 11:50:00;;;;;;;2.03;1.33;;;29.50;9.50;;;;;;5055970;28;20902;-74
2022/06/30 11:52:29;;;;;;;1.67;1.57;;;29.00;9.20;;;;;;5055896;28;20163;-72
2022/06/30 11:55:10;;;;;;;1.83;1.63;;;28.90;9.60;;;;;;5055917;28;20436;-71
2022/06/30 11:57:39;;;;;;;1.37;1.27;;;29.20;10.50;;;;;;5054216;28;20398;-74
2022/06/30 12:00:08;;;;;;;1.63;1.53;;;29.40;10.10;;;;;;5055760;28;21148;-70
2022/06/30 12:02:36;;;;;;;2.10;1.23;;;29.50;5.70;;;;;;5055662;28;20401;-69
2022/06/30 12:05:04;;;;;;;1.50;1.40;;;30.00;9.80;;;;;;5055618;28;20476;-73
2022/06/30 12:07:31;;;;;;;1.30;1.20;;;30.40;11.10;;;;;;5054807;28;20397;-74
2022/06/30 12:09:58;;;;;;;1.40;1.20;;;30.60;9.50;;;;;;5055593;28;20421;-71
2022/06/30 12:12:29;;;;;;;1.50;1.20;;;31.40;6.50;;;;;;5055590;28;20731;-72
2022/06/30 12:15:23;;;;;;;1.40;1.03;;;31.10;2.00;;;;;;5055673;28;20394;-74
2022/06/30 12:17:52;;;;;;;2.43;2.33;;;31.00;1.00;;;;;;5053440;28;20442;-72
2022/06/30 12:20:20;;;;;;;2.43;2.20;;;31.30;1.00;;;;;;5055532;28;20475;-71
2022/06/30 12:22:53;;;;;;;1.60;1.37;;;31.60;1.00;;;;;;5055367;28;20412;-75
2022/06/30 12:25:20;;;;;;;2.00;1.30;;;31.90;1.00;;;;;;5055181;28;20476;-71
2022/06/30 12:27:51;;;;;;;1.23;1.13;;;32.00;1.00;;;;;;5054320;28;20412;-71
2022/06/30 12:30:22;;;;;;;1.37;1.17;;;31.80;1.00;;;;;;5055204;28;20414;-75
2022/06/30 12:32:56;;;;;;;1.40;1.30;;;31.60;1.00;;;;;;5055228;28;20393;-71
2022/06/30 12:35:24;;;;;;;1.97;1.07;;;30.70;1.00;;;;;;5054794;28;20409;-72
2022/06/30 12:37:51;;;;;;;1.40;1.30;;;30.70;1.00;;;;;;5053484;28;20796;-72
2022/06/30 12:40:21;;;;;;;3.50;1.83;;;31.10;1.00;;;;;;5055036;28;20818;-74
2022/06/30 12:42:55;;;;;;;2.90;1.80;;;30.90;1.00;;;;;;5055061;28;20455;-74
2022/06/30 12:45:34;;;;;;;3.47;1.57;;;30.00;1.00;;;;;;5054765;28;20977;-72
2022/06/30 12:48:01;;;;;;;1.90;1.80;;;29.80;1.00;;;;;;5053900;28;20904;-74
2022/06/30 12:50:26;;;;;;;1.50;1.40;;;29.30;1.00;;;;;;5054941;28;20388;-73
2022/06/30 12:52:52;;;;;;;2.83;1.43;;;28.90;1.00;;;;;;5054898;28;20489;-74
2022/06/30 12:55:18;;;;;;;1.67;1.57;;;29.20;1.00;;;;;;5054167;28;20524;-73
2022/06/30 12:57:48;;;;;;;3.67;1.60;;;29.20;1.00;;;;;;5052916;28;20167;-70
2022/06/30 13:00:14;;;;;;;3.80;1.60;;;29.50;1.00;;;;;;5054732;28;20241;-74
2022/06/30 13:02:40;;;;;;;1.77;1.50;;;29.10;1.00;;;;;;5054529;28;20402;-74
2022/06/30 13:05:14;;;;;;;1.93;1.80;;;28.80;1.00;;;;;;5054453;28;20965;-73